Time;durP1;ratioP1;P1;durP2;ratioP2;P2;SDS_P1;SDS_P2;PMS_P1;PMS_P2;Temp;Humidity;BMP_temperature;BMP_pressure;BME280_temperature;BME280_humidity;BME280_pressure;Samples;Min_cycle;Max_cycle;Signal;HPM_P1;HPM_P2
2023/06/18 00:01:02;;;;;;;9.65;5.18;;;;;;;-142.57;53.30;115900.28;5035487;28;20504;-84
2023/06/18 00:03:28;;;;;;;11.75;4.53;;;;;;;-142.57;52.90;115900.28;5035194;28;20034;-84
2023/06/18 00:05:54;;;;;;;7.65;4.55;;;;;;;-142.57;52.41;115900.28;5035428;28;20487;-85
2023/06/18 00:08:20;;;;;;;8.25;4.45;;;;;;;-142.57;52.33;115900.28;5034824;28;20065;-85
2023/06/18 00:10:45;;;;;;;8.65;5.18;;;;;;;-142.57;51.83;115900.28;5034900;28;20036;-85
2023/06/18 00:13:11;;;;;;;5.82;4.18;;;;;;;-142.57;52.08;115900.28;5034710;28;20033;-82
2023/06/18 00:15:36;;;;;;;6.55;4.82;;;;;;;-142.57;52.87;115900.28;5017102;28;20108;-85
2023/06/18 00:18:02;;;;;;;7.90;4.13;;;;;;;-142.57;52.56;115900.28;5035340;28;20045;-88
2023/06/18 00:20:28;;;;;;;8.68;4.90;;;;;;;-142.57;52.99;115900.28;5034987;28;20037;-84
2023/06/18 00:22:53;;;;;;;8.65;4.82;;;;;;;-142.57;53.41;115900.28;5035093;28;20021;-86
2023/06/18 00:25:19;;;;;;;6.60;4.63;;;;;;;-142.57;53.47;115900.28;5016573;28;20040;-83
2023/06/18 00:27:46;;;;;;;7.50;4.78;;;;;;;-142.57;53.63;115900.28;5034730;28;20030;-84
2023/06/18 00:30:13;;;;;;;10.95;4.40;;;;;;;-142.57;53.83;115900.28;5012156;28;20403;-85
2023/06/18 00:32:43;;;;;;;7.90;4.60;;;;;;;-142.57;54.50;115900.28;4999379;28;20033;-84
2023/06/18 00:35:10;;;;;;;9.30;5.15;;;;;;;-142.57;53.26;115900.28;4998227;28;20096;-86
2023/06/18 00:37:36;;;;;;;8.00;5.03;;;;;;;-142.57;54.03;115900.28;4997678;28;20097;-85
2023/06/18 00:40:03;;;;;;;8.68;5.07;;;;;;;-142.57;53.84;115900.28;4996849;28;20060;-85
2023/06/18 00:42:29;;;;;;;6.32;4.35;;;;;;;-142.57;52.85;115900.28;5015082;28;20038;-86
2023/06/18 00:44:54;;;;;;;10.52;5.20;;;;;;;-142.57;52.04;115900.28;5015054;28;20045;-85
2023/06/18 00:47:21;;;;;;;8.13;5.32;;;;;;;-142.57;53.28;115900.28;5014860;28;20021;-83
2023/06/18 00:49:47;;;;;;;6.97;5.07;;;;;;;-142.57;53.30;115900.28;4996792;28;20137;-83
2023/06/18 00:52:13;;;;;;;7.95;4.60;;;;;;;-142.57;53.40;115900.28;4996493;28;20081;-88
2023/06/18 00:54:44;;;;;;;6.10;4.65;;;;;;;-142.57;52.54;115900.28;5014177;28;20411;-84
2023/06/18 00:57:15;;;;;;;10.82;4.40;;;;;;;-142.57;51.83;115900.28;5014207;28;20159;-85
2023/06/18 00:59:42;;;;;;;6.07;4.55;;;;;;;-142.57;52.31;115900.28;5014621;28;20483;-86
2023/06/18 01:02:08;;;;;;;9.40;4.70;;;;;;;-142.57;52.57;115900.28;5014491;28;20026;-84
2023/06/18 01:04:36;;;;;;;6.80;4.70;;;;;;;-142.57;53.30;115900.28;5014504;28;20034;-84
2023/06/18 01:07:03;;;;;;;8.23;4.55;;;;;;;-142.57;52.99;115900.28;5015567;28;20475;-85
2023/06/18 01:09:30;;;;;;;7.22;4.63;;;;;;;-142.57;53.02;115900.28;5015427;28;20030;-84
2023/06/18 01:11:57;;;;;;;7.22;4.68;;;;;;;-142.57;53.92;115900.28;4997447;28;20038;-86
2023/06/18 01:14:28;;;;;;;9.55;5.10;;;;;;;-142.57;54.21;115900.28;5014275;28;20040;-87
2023/06/18 01:17:01;;;;;;;8.70;4.88;;;;;;;-142.57;53.43;115900.28;5014373;28;20029;-84
2023/06/18 01:19:46;;;;;;;9.50;4.32;;;;;;;-142.57;53.67;115900.28;5014681;28;20487;-85
2023/06/18 01:22:30;;;;;;;11.38;5.00;;;;;;;-142.57;53.26;115900.28;4997911;28;20053;-85
2023/06/18 01:24:58;;;;;;;6.78;4.40;;;;;;;-142.57;53.11;115900.28;4997308;28;20038;-85
2023/06/18 01:27:27;;;;;;;7.03;4.55;;;;;;;-142.57;53.64;115900.28;5015674;28;20080;-85
2023/06/18 01:29:56;;;;;;;9.38;5.25;;;;;;;-142.57;53.68;115900.28;5015413;28;20037;-84
2023/06/18 01:32:21;;;;;;;7.80;4.97;;;;;;;-142.57;54.54;115900.28;5015707;28;20042;-84
2023/06/18 01:34:47;;;;;;;10.95;4.28;;;;;;;-142.57;56.04;115900.28;4997642;28;20360;-85
2023/06/18 01:37:48;;;;;;;7.38;4.88;;;;;;;-142.57;55.60;115900.28;5015223;28;20030;-84
2023/06/18 01:40:20;;;;;;;9.45;4.30;;;;;;;-142.57;55.22;115900.28;5015286;28;20543;-84
2023/06/18 01:43:11;;;;;;;6.43;4.25;;;;;;;-142.57;55.17;115900.28;5015115;28;20038;-84
2023/06/18 01:45:43;;;;;;;7.50;4.97;;;;;;;-142.57;54.91;115900.28;4997834;28;20100;-86
2023/06/18 01:48:10;;;;;;;8.32;4.65;;;;;;;-142.57;54.23;115900.28;5014595;28;20140;-83
2023/06/18 01:50:38;;;;;;;8.68;4.85;;;;;;;-142.57;55.05;115900.28;5016034;28;20183;-84
2023/06/18 01:53:06;;;;;;;11.32;5.07;;;;;;;-142.57;54.53;115900.28;5019939;28;20124;-85
2023/06/18 01:55:34;;;;;;;8.13;4.82;;;;;;;-142.57;55.47;115900.28;5017894;28;20383;-84
2023/06/18 01:58:00;;;;;;;10.50;5.13;;;;;;;-142.57;55.93;115900.28;5017478;28;20484;-85
2023/06/18 02:00:26;;;;;;;7.32;5.05;;;;;;;-142.57;56.74;115900.28;4999775;28;20537;-85
2023/06/18 02:02:51;;;;;;;6.72;4.82;;;;;;;-142.57;56.43;115900.28;4999966;28;20041;-85
2023/06/18 02:05:18;;;;;;;9.57;4.82;;;;;;;-142.57;55.40;115900.28;5017289;28;20487;-84
2023/06/18 02:07:43;;;;;;;6.28;5.00;;;;;;;-142.57;54.46;115900.28;5017199;28;20068;-84
2023/06/18 02:10:09;;;;;;;8.20;4.90;;;;;;;-142.57;54.06;115900.28;5016533;28;20061;-84
2023/06/18 02:12:35;;;;;;;11.80;4.80;;;;;;;-142.57;55.37;115900.28;5017165;28;20461;-85
2023/06/18 02:15:01;;;;;;;11.32;4.68;;;;;;;-142.57;54.84;115900.28;5016824;28;20093;-84
2023/06/18 02:17:28;;;;;;;8.50;4.93;;;;;;;-142.57;55.19;115900.28;4999902;28;20162;-84
2023/06/18 02:19:54;;;;;;;8.25;4.97;;;;;;;-142.57;55.84;115900.28;4999511;28;20446;-84
2023/06/18 02:22:20;;;;;;;7.93;5.10;;;;;;;-142.57;56.14;115900.28;5017769;28;20030;-84
2023/06/18 02:24:45;;;;;;;7.32;4.75;;;;;;;-142.57;56.00;115900.28;5023477;28;20096;-82
2023/06/18 02:27:11;;;;;;;6.40;4.97;;;;;;;-142.57;56.27;115900.28;5004991;28;20037;-85
2023/06/18 02:29:37;;;;;;;6.88;5.03;;;;;;;-142.57;56.18;115900.28;5016515;28;20017;-84
2023/06/18 02:32:03;;;;;;;11.43;5.10;;;;;;;-142.57;56.18;115900.28;5018162;28;20041;-86
2023/06/18 02:34:31;;;;;;;10.48;4.20;;;;;;;-142.57;56.26;115900.28;4983096;28;20068;-84
2023/06/18 02:36:57;;;;;;;9.43;4.65;;;;;;;-142.57;56.52;115900.28;4998913;28;20041;-84
2023/06/18 02:39:22;;;;;;;8.57;4.70;;;;;;;-142.57;57.03;115900.28;5016355;28;20038;-86
2023/06/18 02:41:48;;;;;;;8.48;4.97;;;;;;;-142.57;57.24;115900.28;4982566;28;20076;-84
2023/06/18 02:44:13;;;;;;;7.80;4.60;;;;;;;-142.57;57.80;115900.28;5016167;28;20041;-84
2023/06/18 02:46:39;;;;;;;5.88;4.47;;;;;;;-142.57;57.64;115900.28;5016146;28;20034;-85
2023/06/18 02:49:05;;;;;;;11.25;4.72;;;;;;;-142.57;58.00;115900.28;5016127;28;20053;-85
2023/06/18 02:51:30;;;;;;;7.72;4.47;;;;;;;-142.57;58.19;115900.28;4998478;28;20088;-86
2023/06/18 02:53:59;;;;;;;9.27;5.40;;;;;;;-142.57;58.87;115900.28;4998304;28;20072;-85
2023/06/18 02:56:27;;;;;;;10.63;5.22;;;;;;;-142.57;58.75;115900.28;4998238;28;20455;-84
2023/06/18 02:58:55;;;;;;;7.60;5.07;;;;;;;-142.57;59.38;115900.28;5015592;28;20114;-87
2023/06/18 03:01:24;;;;;;;6.82;4.75;;;;;;;-142.57;59.49;115900.28;4997524;28;20042;-85
2023/06/18 03:03:51;;;;;;;10.93;5.40;;;;;;;-142.57;59.12;115900.28;5015484;28;20435;-86
2023/06/18 03:06:17;;;;;;;8.25;5.22;;;;;;;-142.57;58.62;115900.28;4997866;28;20131;-84
2023/06/18 03:08:43;;;;;;;8.65;5.22;;;;;;;-142.57;58.27;115900.28;4997148;28;20494;-86
2023/06/18 03:11:08;;;;;;;8.93;4.82;;;;;;;-142.57;58.75;115900.28;4997558;28;20034;-83
2023/06/18 03:13:35;;;;;;;8.13;4.60;;;;;;;-142.57;59.07;115900.28;4998710;28;20030;-85
2023/06/18 03:16:01;;;;;;;9.40;5.47;;;;;;;-142.57;59.81;115900.28;4997525;28;20387;-86
2023/06/18 03:18:31;;;;;;;6.93;4.75;;;;;;;-142.57;59.00;115900.28;4996748;28;20049;-84
2023/06/18 03:20:57;;;;;;;6.78;4.90;;;;;;;-142.57;58.39;115900.28;4997007;28;20038;-83
2023/06/18 03:23:23;;;;;;;4.95;4.45;;;;;;;-142.57;57.74;115900.28;4996507;28;20121;-84
2023/06/18 03:25:48;;;;;;;9.00;4.97;;;;;;;-142.57;58.56;115900.28;4996668;28;20124;-83
2023/06/18 03:28:19;;;;;;;9.48;5.18;;;;;;;-142.57;58.40;115900.28;4981541;28;20486;-86
2023/06/18 03:30:45;;;;;;;10.98;5.05;;;;;;;-142.57;57.87;115900.28;4996477;28;20034;-83
2023/06/18 03:33:11;;;;;;;9.48;5.25;;;;;;;-142.57;57.60;115900.28;5013935;28;20026;-83
2023/06/18 03:35:39;;;;;;;7.05;4.65;;;;;;;-142.57;58.72;115900.28;4996160;28;20042;-83
2023/06/18 03:38:06;;;;;;;11.25;4.90;;;;;;;-142.57;59.33;115900.28;4995973;28;20065;-82
2023/06/18 03:40:32;;;;;;;9.02;4.97;;;;;;;-142.57;59.31;115900.28;5013921;28;20099;-84
2023/06/18 03:42:57;;;;;;;8.93;5.53;;;;;;;-142.57;58.87;115900.28;5013512;28;20478;-84
2023/06/18 03:45:25;;;;;;;13.07;4.93;;;;;;;-142.57;58.84;115900.28;4996155;28;20104;-84
2023/06/18 03:47:50;;;;;;;8.48;5.07;;;;;;;-142.57;59.19;115900.28;4996016;28;20034;-82
2023/06/18 03:50:18;;;;;;;7.20;5.22;;;;;;;-142.57;60.28;115900.28;4995541;28;20116;-83
2023/06/18 03:52:44;;;;;;;7.57;5.65;;;;;;;-142.57;61.25;115900.28;4996078;28;20034;-83
2023/06/18 03:55:09;;;;;;;11.20;5.28;;;;;;;-142.57;60.46;115900.28;5013402;28;20069;-85
2023/06/18 03:57:36;;;;;;;7.40;4.78;;;;;;;-142.57;59.77;115900.28;4996023;28;20037;-82
2023/06/18 04:00:04;;;;;;;7.35;4.75;;;;;;;-142.57;59.73;115900.28;4995582;28;20038;-82
2023/06/18 04:02:38;;;;;;;10.48;4.80;;;;;;;-142.57;59.82;115900.28;5013962;28;20096;-84
2023/06/18 04:05:04;;;;;;;6.53;5.28;;;;;;;-142.57;59.44;115900.28;4996236;28;20057;-84
2023/06/18 04:07:30;;;;;;;8.38;5.13;;;;;;;-142.57;60.34;115900.28;4995863;28;20030;-82
2023/06/18 04:09:55;;;;;;;8.88;5.32;;;;;;;-142.57;60.87;115900.28;5013483;28;20073;-84
2023/06/18 04:12:21;;;;;;;8.38;5.35;;;;;;;-142.57;61.05;115900.28;4995966;28;20049;-82
2023/06/18 04:14:47;;;;;;;12.48;5.68;;;;;;;-142.57;61.24;115900.28;5013253;28;20038;-84
2023/06/18 04:17:12;;;;;;;7.50;5.10;;;;;;;-142.57;62.68;115900.28;4995835;28;20467;-85
2023/06/18 04:19:39;;;;;;;8.85;5.10;;;;;;;-142.57;63.37;115900.28;4979755;28;20133;-84
2023/06/18 04:22:05;;;;;;;7.85;4.93;;;;;;;-142.57;63.45;115900.28;5014163;28;20553;-83
2023/06/18 04:24:32;;;;;;;7.45;5.25;;;;;;;-142.57;62.59;115900.28;4995873;28;20053;-84
2023/06/18 04:26:58;;;;;;;10.90;5.32;;;;;;;-142.57;63.28;115900.28;5012966;28;20072;-83
2023/06/18 04:29:28;;;;;;;7.50;5.38;;;;;;;-142.57;62.27;115900.28;4995688;28;20029;-82
2023/06/18 04:31:53;;;;;;;9.40;5.20;;;;;;;-142.57;63.04;115900.28;4996676;28;20034;-82
2023/06/18 04:34:19;;;;;;;8.95;5.32;;;;;;;-142.57;62.61;115900.28;4996871;28;20088;-82
2023/06/18 04:36:46;;;;;;;9.52;5.15;;;;;;;-142.57;62.30;115900.28;4995889;28;20088;-84
2023/06/18 04:39:13;;;;;;;8.70;5.13;;;;;;;-142.57;61.93;115900.28;5014102;28;20478;-83
2023/06/18 04:41:39;;;;;;;13.57;5.53;;;;;;;-142.57;62.14;115900.28;4995964;28;20394;-83
2023/06/18 04:44:05;;;;;;;14.20;5.95;;;;;;;-142.57;61.22;115900.28;4995191;28;20121;-83
2023/06/18 04:46:33;;;;;;;10.00;5.55;;;;;;;-142.57;61.07;115900.28;4995537;28;20130;-84
2023/06/18 04:48:59;;;;;;;14.38;5.75;;;;;;;-142.57;61.98;115900.28;5012740;28;20081;-84
2023/06/18 04:51:26;;;;;;;15.88;6.25;;;;;;;-142.57;61.61;115900.28;4994771;28;20077;-85
2023/06/18 04:53:52;;;;;;;9.88;5.13;;;;;;;-142.57;62.74;115900.28;4995435;28;20471;-84
2023/06/18 04:56:18;;;;;;;7.32;5.38;;;;;;;-142.57;63.06;115900.28;4995506;28;20080;-83
2023/06/18 04:58:47;;;;;;;8.80;5.80;;;;;;;-142.57;62.35;115900.28;4995507;28;20048;-83
2023/06/18 05:01:14;;;;;;;11.90;6.00;;;;;;;-142.57;62.66;115900.28;4995126;28;20134;-85
2023/06/18 05:03:40;;;;;;;8.55;5.80;;;;;;;-142.57;62.68;115900.28;4994950;28;20042;-87
2023/06/18 05:06:06;;;;;;;8.35;5.53;;;;;;;-142.57;61.95;115900.28;4995073;28;20033;-85
2023/06/18 05:08:33;;;;;;;7.60;5.22;;;;;;;-142.57;62.38;115900.28;4995116;28;20115;-85
2023/06/18 05:10:59;;;;;;;7.15;5.32;;;;;;;-142.57;62.36;115900.28;4995154;28;20034;-85
2023/06/18 05:13:26;;;;;;;10.98;5.25;;;;;;;-142.57;61.93;115900.28;4995782;28;20045;-87
2023/06/18 05:15:51;;;;;;;7.30;5.03;;;;;;;-142.57;61.85;115900.28;4994932;28;20452;-85
2023/06/18 05:18:17;;;;;;;7.38;5.03;;;;;;;-142.57;61.50;115900.28;4995443;28;20051;-86
2023/06/18 05:20:42;;;;;;;8.60;5.60;;;;;;;-142.57;61.33;115900.28;5012211;28;20060;-85
2023/06/18 05:23:08;;;;;;;9.32;6.30;;;;;;;-142.57;60.50;115900.28;4995481;28;20506;-85
2023/06/18 05:25:36;;;;;;;9.75;6.68;;;;;;;-142.57;59.06;115900.28;4997038;28;20038;-84
2023/06/18 05:28:02;;;;;;;11.05;7.32;;;;;;;-142.57;58.59;115900.28;5001520;28;20508;-84
2023/06/18 05:30:30;;;;;;;9.27;7.07;;;;;;;-142.57;58.65;115900.28;4986686;28;20052;-85
2023/06/18 05:32:56;;;;;;;12.30;6.68;;;;;;;-142.57;58.91;115900.28;4999618;28;20037;-86
2023/06/18 05:35:21;;;;;;;12.60;6.53;;;;;;;-142.57;58.80;115900.28;5019469;28;20140;-84
2023/06/18 05:37:54;;;;;;;9.98;5.90;;;;;;;-142.57;58.09;115900.28;5002106;28;20487;-86
2023/06/18 05:40:20;;;;;;;9.57;6.00;;;;;;;-142.57;58.03;115900.28;4985092;28;20037;-85
2023/06/18 05:42:46;;;;;;;11.80;5.85;;;;;;;-142.57;57.85;115900.28;5000949;28;20046;-84
2023/06/18 05:45:12;;;;;;;10.70;5.95;;;;;;;-142.57;57.61;115900.28;5001772;28;20088;-84
2023/06/18 05:47:39;;;;;;;7.15;5.80;;;;;;;-142.57;57.84;115900.28;5001996;28;20034;-85
2023/06/18 05:50:09;;;;;;;10.40;6.43;;;;;;;-142.57;55.88;115900.28;4984100;28;20042;-85
2023/06/18 05:52:35;;;;;;;11.60;6.13;;;;;;;-142.57;55.10;115900.28;5001108;28;20042;-85
2023/06/18 05:55:06;;;;;;;10.73;6.90;;;;;;;-142.57;53.83;115900.28;5002291;28;20511;-85
2023/06/18 05:57:34;;;;;;;13.82;6.88;;;;;;;-142.57;53.87;115900.28;4984831;28;20042;-87
2023/06/18 06:00:00;;;;;;;10.52;6.65;;;;;;;-142.57;54.14;115900.28;5016631;28;20030;-85
2023/06/18 06:02:26;;;;;;;12.70;7.63;;;;;;;-142.57;54.71;115900.28;5002732;28;20049;-86
2023/06/18 06:04:52;;;;;;;10.57;6.72;;;;;;;-142.57;55.22;115900.28;5003598;28;20055;-87
2023/06/18 06:07:18;;;;;;;11.88;6.90;;;;;;;-142.57;55.15;115900.28;5018761;28;20095;-85
2023/06/18 06:09:43;;;;;;;12.00;7.40;;;;;;;-142.57;58.29;115900.28;5019355;28;20037;-84
2023/06/18 06:12:10;;;;;;;13.73;8.60;;;;;;;-142.57;59.58;115900.28;5000619;28;20037;-85
2023/06/18 06:14:36;;;;;;;11.73;7.80;;;;;;;-142.57;59.27;115900.28;5001197;28;20403;-84
2023/06/18 06:17:02;;;;;;;12.77;7.53;;;;;;;-142.57;57.99;115900.28;5001460;28;20026;-86
2023/06/18 06:19:28;;;;;;;13.82;6.97;;;;;;;-142.57;57.71;115900.28;5001145;28;20030;-87
2023/06/18 06:21:55;;;;;;;18.90;8.10;;;;;;;-142.57;55.37;115900.28;5000455;28;20037;-83
2023/06/18 06:24:21;;;;;;;10.88;7.00;;;;;;;-142.57;51.83;115900.28;5000730;28;20030;-83
2023/06/18 06:26:47;;;;;;;13.80;7.55;;;;;;;-142.57;50.24;115900.28;4999992;28;20068;-85
2023/06/18 06:29:12;;;;;;;10.25;7.22;;;;;;;-142.57;49.44;115900.28;5010401;28;20049;-84
2023/06/18 06:31:40;;;;;;;11.32;6.50;;;;;;;-142.57;50.59;115900.28;5021175;28;20032;-82
2023/06/18 06:34:06;;;;;;;10.38;6.50;;;;;;;-142.57;47.15;115900.28;5008324;28;20038;-84
2023/06/18 06:36:31;;;;;;;9.13;6.85;;;;;;;-142.57;48.63;115900.28;5019881;28;20493;-85
2023/06/18 06:38:57;;;;;;;10.13;6.55;;;;;;;-142.57;48.14;115900.28;5019057;28;20025;-85
2023/06/18 06:41:23;;;;;;;11.23;7.15;;;;;;;-142.57;48.57;115900.28;5019477;28;20044;-89
2023/06/18 06:43:48;;;;;;;10.05;6.40;;;;;;;-142.57;45.58;115900.28;5022351;28;20022;-89
2023/06/18 06:46:34;;;;;;;12.48;6.65;;;;;;;-142.57;44.73;115900.28;5037677;28;20095;-80
2023/06/18 06:49:18;;;;;;;10.88;6.18;;;;;;;-142.57;45.32;115900.28;5038885;28;20068;-80
2023/06/18 06:52:07;;;;;;;10.15;6.20;;;;;;;-142.57;43.61;115900.28;5038161;28;20060;-81
2023/06/18 06:54:33;;;;;;;14.90;6.65;;;;;;;-142.57;42.10;115900.28;5020753;28;20395;-82
2023/06/18 06:57:00;;;;;;;10.00;6.35;;;;;;;-142.57;42.97;115900.28;5018653;28;20040;-80
2023/06/18 06:59:25;;;;;;;8.38;6.45;;;;;;;-142.57;42.33;115900.28;5019212;28;20397;-79
2023/06/18 07:01:51;;;;;;;14.43;6.97;;;;;;;-142.57;41.79;115900.28;5039009;28;20084;-79
2023/06/18 07:04:17;;;;;;;10.52;6.63;;;;;;;-142.57;41.41;115900.28;5019810;28;20030;-82
2023/06/18 07:06:43;;;;;;;10.85;6.10;;;;;;;-142.57;42.73;115900.28;5037272;28;20347;-83
2023/06/18 07:09:08;;;;;;;12.65;6.40;;;;;;;-142.57;43.02;115900.28;5036088;28;20135;-84
2023/06/18 07:11:36;;;;;;;8.10;5.95;;;;;;;-142.57;40.47;115900.28;5037511;28;20048;-81
2023/06/18 07:14:02;;;;;;;10.95;6.25;;;;;;;-142.57;37.94;115900.28;5037462;28;20474;-86
2023/06/18 07:16:28;;;;;;;10.90;6.35;;;;;;;-142.57;36.29;115900.28;5038083;28;20485;-85
2023/06/18 07:18:53;;;;;;;8.93;6.53;;;;;;;-142.57;37.03;115900.28;5037543;28;20032;-86
2023/06/18 07:21:19;;;;;;;11.60;6.35;;;;;;;-142.57;38.13;115900.28;5037815;28;20030;-82
2023/06/18 07:23:44;;;;;;;10.00;6.07;;;;;;;-142.57;38.83;115900.28;5036142;28;20068;-82
2023/06/18 07:26:11;;;;;;;16.65;6.72;;;;;;;-142.57;36.41;115900.28;5036035;28;20050;-83
2023/06/18 07:28:37;;;;;;;13.80;6.07;;;;;;;-142.57;38.16;115900.28;5036246;28;20155;-87
2023/06/18 07:31:02;;;;;;;10.80;6.90;;;;;;;-142.57;38.27;115900.28;5036806;28;20026;-86
2023/06/18 07:33:28;;;;;;;11.85;6.90;;;;;;;-142.57;38.97;115900.28;5038984;28;20033;-87
2023/06/18 07:35:53;;;;;;;12.52;6.07;;;;;;;-142.57;38.28;115900.28;5037057;28;20041;-88
2023/06/18 07:38:19;;;;;;;12.23;5.97;;;;;;;-142.57;37.53;115900.28;5018834;28;20041;-86
2023/06/18 07:40:45;;;;;;;7.10;5.57;;;;;;;-142.57;37.84;115900.28;5037772;28;20042;-85
2023/06/18 07:43:11;;;;;;;16.65;5.68;;;;;;;-142.57;36.38;115900.28;5019653;28;20045;-85
2023/06/18 07:45:36;;;;;;;8.43;4.90;;;;;;;-142.57;35.97;115900.28;5037253;28;20037;-85
2023/06/18 07:48:02;;;;;;;10.57;5.65;;;;;;;-142.57;35.11;115900.28;5038352;28;20037;-84
2023/06/18 07:50:31;;;;;;;14.77;5.40;;;;;;;-142.57;34.89;115900.28;5039640;28;20029;-85
2023/06/18 07:52:56;;;;;;;8.50;5.63;;;;;;;-142.57;35.38;115900.28;5020568;28;20042;-85
2023/06/18 07:55:22;;;;;;;10.55;5.53;;;;;;;-142.57;37.12;115900.28;5037506;28;20036;-83
2023/06/18 07:57:48;;;;;;;11.50;5.70;;;;;;;-142.57;34.45;115900.28;5032395;28;20143;-81
2023/06/18 08:00:14;;;;;;;10.13;6.40;;;;;;;-142.57;34.46;115900.28;5033772;28;20134;-84
2023/06/18 08:02:40;;;;;;;10.30;6.22;;;;;;;-142.57;34.75;115900.28;5033276;28;20037;-84
2023/06/18 08:05:07;;;;;;;13.77;6.47;;;;;;;-142.57;34.66;115900.28;5030703;28;20033;-83
2023/06/18 08:07:32;;;;;;;12.98;6.40;;;;;;;-142.57;34.34;115900.28;5031390;28;20566;-82
2023/06/18 08:09:58;;;;;;;16.73;6.85;;;;;;;-142.57;35.01;115900.28;5033619;28;20037;-83
2023/06/18 08:12:25;;;;;;;9.05;6.25;;;;;;;-142.57;35.13;115900.28;5027599;28;20160;-85
2023/06/18 08:14:53;;;;;;;12.98;6.78;;;;;;;-142.57;35.96;115900.28;5038431;28;20057;-86
2023/06/18 08:17:20;;;;;;;13.95;6.30;;;;;;;-142.57;34.81;115900.28;5005989;28;20049;-85
2023/06/18 08:19:47;;;;;;;16.98;7.32;;;;;;;-142.57;35.50;115900.28;5032677;28;20029;-83
2023/06/18 08:22:20;;;;;;;16.42;6.82;;;;;;;-142.57;33.89;115900.28;5020737;28;20437;-78
2023/06/18 08:24:50;;;;;;;15.02;7.93;;;;;;;-142.57;34.62;115900.28;4991761;28;20034;-86
2023/06/18 08:27:15;;;;;;;13.20;8.75;;;;;;;-142.57;35.19;115900.28;5019272;28;20029;-83
2023/06/18 08:29:41;;;;;;;13.75;9.20;;;;;;;-142.57;33.29;115900.28;5034796;28;20068;-87
2023/06/18 08:32:07;;;;;;;16.45;10.60;;;;;;;-142.57;33.98;115900.28;5023764;28;20091;-84
2023/06/18 08:34:42;;;;;;;22.88;10.35;;;;;;;-142.57;34.02;115900.28;5018092;28;20029;-81
2023/06/18 08:37:10;;;;;;;19.27;9.05;;;;;;;-142.57;33.71;115900.28;5026160;28;20038;-81
2023/06/18 08:39:39;;;;;;;16.60;8.95;;;;;;;-142.57;32.92;115900.28;5035788;28;20033;-83
2023/06/18 08:42:06;;;;;;;18.38;9.82;;;;;;;-142.57;32.37;115900.28;5024001;28;20537;-83
2023/06/18 08:44:38;;;;;;;24.77;11.45;;;;;;;-142.57;32.92;115900.28;5034830;28;20047;-83
2023/06/18 08:47:04;;;;;;;;;;;;;;;-142.57;32.51;115900.28;5035806;28;20035;-81
2023/06/18 08:49:31;;;;;;;13.95;11.00;;;;;;;-142.57;33.35;115900.28;5023057;28;19921;-81
2023/06/18 08:51:58;;;;;;;17.20;10.63;;;;;;;-142.57;31.94;115900.28;5035748;28;20068;-82
2023/06/18 08:54:32;;;;;;;19.10;12.65;;;;;;;-142.57;31.88;115900.28;5008294;28;20076;-82
2023/06/18 08:57:20;;;;;;;21.08;14.65;;;;;;;-142.57;32.03;115900.28;5027302;28;20025;-84
2023/06/18 08:59:54;;;;;;;24.25;16.48;;;;;;;-142.57;32.71;115900.28;5031746;22;20427;-82
2023/06/18 09:02:24;;;;;;;25.90;16.40;;;;;;;-142.57;32.74;115900.28;5009533;28;20033;-84
2023/06/18 09:04:52;;;;;;;25.85;18.17;;;;;;;-142.57;33.25;115900.28;5006301;28;20046;-84
2023/06/18 09:07:19;;;;;;;31.95;18.30;;;;;;;-142.57;33.07;115900.28;5004350;28;20054;-83
2023/06/18 09:12:39;;;;;;;26.98;18.67;;;;;;;-142.57;33.04;115900.28;4937411;29;20054;-85
2023/06/18 09:15:07;;;;;;;29.02;20.52;;;;;;;-142.57;32.53;115900.28;4938324;29;20118;-85
2023/06/18 09:17:36;;;;;;;30.42;22.70;;;;;;;-142.57;33.78;115900.28;4937441;29;20040;-83
2023/06/18 09:20:02;;;;;;;32.20;20.10;;;;;;;-142.57;33.35;115900.28;4937612;29;20043;-85
2023/06/18 09:22:28;;;;;;;33.85;19.23;;;;;;;-142.57;32.67;115900.28;4937683;29;20127;-84
2023/06/18 09:24:59;;;;;;;31.13;19.60;;;;;;;-142.57;32.53;115900.28;4937446;29;20039;-83
2023/06/18 09:27:32;;;;;;;30.92;20.15;;;;;;;-142.57;32.79;115900.28;4937920;29;20086;-84
2023/06/18 09:29:58;;;;;;;32.35;20.55;;;;;;;-142.57;33.43;115900.28;4936831;29;20055;-84
2023/06/18 09:32:23;;;;;;;24.38;18.20;;;;;;;-142.57;33.07;115900.28;4937262;29;20040;-83
2023/06/18 09:34:49;;;;;;;32.95;20.80;;;;;;;-142.57;32.15;115900.28;4937003;29;20401;-83
2023/06/18 09:37:16;;;;;;;32.00;18.08;;;;;;;-142.57;32.06;115900.28;4936362;29;20095;-81
2023/06/18 09:39:42;;;;;;;25.23;17.88;;;;;;;-142.57;31.48;115900.28;4925759;29;20051;-83
2023/06/18 09:42:16;;;;;;;27.15;18.77;;;;;;;-142.57;31.13;115900.28;4923705;29;20037;-82
2023/06/18 09:44:48;;;;;;;27.10;16.42;;;;;;;-142.57;31.85;115900.28;4920701;29;20056;-84
2023/06/18 09:47:16;;;;;;;22.30;17.02;;;;;;;-142.57;32.04;115900.28;4941384;29;20047;-83
2023/06/18 09:49:46;;;;;;;32.40;17.50;;;;;;;-142.57;31.04;115900.28;4923929;29;20036;-83
2023/06/18 09:52:15;;;;;;;27.88;20.25;;;;;;;-142.57;32.41;115900.28;4935758;29;20083;-83
2023/06/18 09:54:42;;;;;;;26.15;18.42;;;;;;;-142.57;32.69;115900.28;4919085;29;20039;-83
2023/06/18 09:57:10;;;;;;;29.45;22.90;;;;;;;-142.57;33.81;115900.28;5008196;23;20041;-81
2023/06/18 09:59:36;;;;;;;39.00;25.48;;;;;;;-142.57;33.57;115900.28;5036569;28;20052;-82
2023/06/18 10:02:01;;;;;;;35.95;25.05;;;;;;;-142.57;34.01;115900.28;5022528;28;20092;-81
2023/06/18 10:04:28;;;;;;;32.72;24.25;;;;;;;-142.57;34.00;115900.28;5016596;28;20600;-83
2023/06/18 10:07:15;;;;;;;37.80;23.95;;;;;;;-142.57;33.62;115900.28;5020223;28;20036;-81
2023/06/18 10:09:43;;;;;;;31.83;23.17;;;;;;;-142.57;33.09;115900.28;5014838;28;20538;-80
2023/06/18 10:12:12;;;;;;;36.67;24.00;;;;;;;-142.57;32.17;115900.28;5029370;28;20046;-80
2023/06/18 10:14:38;;;;;;;25.95;16.95;;;;;;;-142.57;30.88;115900.28;5020084;28;20038;-80
2023/06/18 10:17:23;;;;;;;24.02;15.73;;;;;;;-142.57;31.07;115900.28;5019574;28;20037;-80
2023/06/18 10:19:54;;;;;;;26.77;15.85;;;;;;;-142.57;31.23;115900.28;5018021;28;20038;-81
2023/06/18 10:22:20;;;;;;;24.13;14.93;;;;;;;-142.57;31.76;115900.28;5018285;28;20026;-80
2023/06/18 10:24:56;;;;;;;21.52;16.05;;;;;;;-142.57;31.29;115900.28;5018131;28;20033;-82
2023/06/18 10:27:24;;;;;;;27.88;16.98;;;;;;;-142.57;31.69;115900.28;5019243;28;20029;-81
2023/06/18 10:29:57;;;;;;;31.23;21.38;;;;;;;-142.57;32.25;115900.28;5019803;28;20026;-80
2023/06/18 10:32:23;;;;;;;30.58;21.00;;;;;;;-142.57;32.77;115900.28;5017590;28;20424;-82
2023/06/18 10:34:52;;;;;;;38.03;20.63;;;;;;;-142.57;32.04;115900.28;5020032;28;20583;-82
2023/06/18 10:37:19;;;;;;;23.75;15.05;;;;;;;-142.57;31.03;115900.28;5020467;28;20046;-81
2023/06/18 10:39:45;;;;;;;19.20;10.98;;;;;;;-142.57;30.17;115900.28;5019969;28;20487;-82
2023/06/18 10:42:14;;;;;;;17.95;10.93;;;;;;;-142.57;29.90;115900.28;5020116;28;20483;-81
2023/06/18 10:44:57;;;;;;;15.07;9.57;;;;;;;-142.57;30.32;115900.28;5001386;28;20037;-80
2023/06/18 10:47:31;;;;;;;21.42;12.30;;;;;;;-142.57;30.42;115900.28;5019880;28;20071;-81
2023/06/18 10:50:03;;;;;;;16.38;11.43;;;;;;;-142.57;29.57;115900.28;5022568;28;20060;-81
2023/06/18 10:52:49;;;;;;;16.92;10.70;;;;;;;-142.57;29.87;115900.28;5025372;28;20045;-80
2023/06/18 10:55:18;;;;;;;16.13;11.77;;;;;;;-142.57;29.72;115900.28;5025702;28;20062;-79
2023/06/18 10:57:49;;;;;;;16.13;9.98;;;;;;;-142.57;29.63;115900.28;5022739;28;20042;-79
2023/06/18 11:00:29;;;;;;;10.65;8.23;;;;;;;-142.57;28.86;115900.28;5021035;28;20038;-80
2023/06/18 11:03:02;;;;;;;12.90;7.00;;;;;;;-142.57;27.46;115900.28;5019028;28;20037;-80
2023/06/18 11:05:36;;;;;;;9.70;5.50;;;;;;;-142.57;27.85;115900.28;5026840;28;20036;-79
2023/06/18 11:08:08;;;;;;;6.57;4.93;;;;;;;-142.57;27.63;115900.28;5028066;28;20380;-86
2023/06/18 11:10:48;;;;;;;11.05;5.53;;;;;;;-142.57;27.02;115900.28;5010930;28;20102;-80